<?xml version='1.0' encoding='UTF-8'?>
<gpx xmlns="http://www.topografix.com/GPX/1/1" creator="www.balnam.be" version="1.1" xmlns:xsi="http://www.w3.org/2001/XMLSchema-instance" xsi:schemaLocation="http://www.topografix.com/GPX/1/1 http://www.topografix.com/GPX/1/1/gpx.xsd">
<trk>
<name>xdvhf15</name>
<cmt>r</cmt>
<desc>Haut-Fays Chemin n°15 </desc>
<link href="https://chemins.be/hautfays/chemin/15"/><trkseg>
<trkpt lat="49.998881" lon="5.017868"><time>2026-05-03T23:27:46Z</time></trkpt>
<trkpt lat="49.998081" lon="5.018890"><time>2026-05-03T23:37:46Z</time></trkpt>
<trkpt lat="49.996191" lon="5.020528"><time>2026-05-03T23:47:46Z</time></trkpt>
<trkpt lat="49.994499" lon="5.023659"><time>2026-05-03T23:57:46Z</time></trkpt>
<trkpt lat="49.992754" lon="5.027989"><time>2026-05-04T00:07:46Z</time></trkpt>
<trkpt lat="49.992671" lon="5.028514"><time>2026-05-04T00:17:46Z</time></trkpt>
</trkseg></trk>
<trk>
<name>xdvhf15</name>
<cmt>v</cmt>
<desc>Haut-Fays Chemin n°15 </desc>
<link href="https://chemins.be/hautfays/chemin/15"/><trkseg>
<trkpt lat="49.992671" lon="5.028514"><time>2026-05-04T00:17:46Z</time></trkpt>
<trkpt lat="49.992504" lon="5.028566"><time>2026-05-04T00:27:46Z</time></trkpt>
<trkpt lat="49.992473" lon="5.028636"><time>2026-05-04T00:37:46Z</time></trkpt>
<trkpt lat="49.992135" lon="5.030138"><time>2026-05-04T00:47:46Z</time></trkpt>
<trkpt lat="49.992021" lon="5.030567"><time>2026-05-04T00:57:46Z</time></trkpt>
<trkpt lat="49.991962" lon="5.030916"><time>2026-05-04T01:07:46Z</time></trkpt>
<trkpt lat="49.991956" lon="5.031634"><time>2026-05-04T01:17:46Z</time></trkpt>
<trkpt lat="49.991945" lon="5.032573"><time>2026-05-04T01:27:46Z</time></trkpt>
<trkpt lat="49.992000" lon="5.033303"><time>2026-05-04T01:37:46Z</time></trkpt>
<trkpt lat="49.991983" lon="5.033737"><time>2026-05-04T01:47:46Z</time></trkpt>
<trkpt lat="49.991959" lon="5.034129"><time>2026-05-04T01:57:46Z</time></trkpt>
<trkpt lat="49.991787" lon="5.034730"><time>2026-05-04T02:07:46Z</time></trkpt>
<trkpt lat="49.991645" lon="5.035390"><time>2026-05-04T02:17:46Z</time></trkpt>
<trkpt lat="49.991497" lon="5.035824"><time>2026-05-04T02:27:46Z</time></trkpt>
<trkpt lat="49.991365" lon="5.036141"><time>2026-05-04T02:37:46Z</time></trkpt>
<trkpt lat="49.991345" lon="5.036189"><time>2026-05-04T02:47:46Z</time></trkpt>
<trkpt lat="49.991031" lon="5.036645"><time>2026-05-04T02:57:46Z</time></trkpt>
<trkpt lat="49.990811" lon="5.036886"><time>2026-05-04T03:07:46Z</time></trkpt>
<trkpt lat="49.990621" lon="5.037101"><time>2026-05-04T03:17:46Z</time></trkpt>
<trkpt lat="49.990314" lon="5.037846"><time>2026-05-04T03:27:46Z</time></trkpt>
<trkpt lat="49.990007" lon="5.038356"><time>2026-05-04T03:37:46Z</time></trkpt>
<trkpt lat="49.989731" lon="5.038769"><time>2026-05-04T03:47:46Z</time></trkpt>
<trkpt lat="49.989600" lon="5.038887"><time>2026-05-04T03:57:46Z</time></trkpt>
<trkpt lat="49.989472" lon="5.039273"><time>2026-05-04T04:07:46Z</time></trkpt>
<trkpt lat="49.989369" lon="5.039525"><time>2026-05-04T04:17:46Z</time></trkpt>
<trkpt lat="49.989138" lon="5.039751"><time>2026-05-04T04:27:46Z</time></trkpt>
<trkpt lat="49.988934" lon="5.039902"><time>2026-05-04T04:37:46Z</time></trkpt>
</trkseg>
</trk>
</gpx>